34AR weather

Woodbridge Field
Marked Tree, Arkansas, United States

Public forecast

Using degrees Fahrenheit for public forecast. Weather courtesy of forecast.io.

METAR (pilot weather report)

Closest report is Jonesboro Municipal Airport, 19.7 nm (36.5 km) NW. Retrieved 2019/05/24 18:53 UTC (11 minutes ago):

KJBR 241853Z AUTO 20009G16KT 10SM FEW047 32/20 A3010 RMK AO2 SLP189 T03170200

TAF (pilot weather forecast)

Closest forecast is Jonesboro Municipal Airport, 19.7 nm (36.5 km) NW. Retrieved 2019/05/24 18:48 UTC (16 minutes ago):

TAF KJBR 241746Z 2418/2518 21011G18KT P6SM FEW050 SCT250 FM250200 19004KT P6SM SKC FM251500 23012G18KT P6SM FEW040 SCT250